createdAt,value
2019-03-24T00:01:27.233Z,0.17
2019-03-24T00:03:57.165Z,0.20
2019-03-24T00:06:27.060Z,0.20
2019-03-24T00:08:57.071Z,0.30
2019-03-24T00:11:27.015Z,0.30
2019-03-24T00:13:56.923Z,0.10
2019-03-24T00:16:26.824Z,0.23
2019-03-24T00:18:56.714Z,0.40
2019-03-24T00:21:26.725Z,0.20
2019-03-24T00:23:56.731Z,0.20
2019-03-24T00:26:26.643Z,0.20
2019-03-24T00:28:56.552Z,0.30
2019-03-24T00:31:26.458Z,0.20
2019-03-24T00:33:56.368Z,0.20
2019-03-24T00:36:26.312Z,0.23
2019-03-24T00:38:56.187Z,0.47
2019-03-24T00:41:26.098Z,0.37
2019-03-24T00:43:56.016Z,0.30
2019-03-24T00:46:25.930Z,0.20
2019-03-24T00:48:55.876Z,0.37
2019-03-24T00:51:25.791Z,0.30
2019-03-24T00:53:55.697Z,0.30
2019-03-24T00:56:25.754Z,0.47
2019-03-24T00:58:55.657Z,0.20
2019-03-24T01:01:25.527Z,0.40
2019-03-24T01:03:55.461Z,0.20
2019-03-24T01:06:25.355Z,0.90
2019-03-24T01:08:55.250Z,0.50
2019-03-24T01:11:25.152Z,0.50
2019-03-24T01:13:55.064Z,0.30
2019-03-24T01:16:24.971Z,0.50
2019-03-24T01:18:54.869Z,0.57
2019-03-24T01:21:24.849Z,0.33
2019-03-24T01:23:54.752Z,0.40
2019-03-24T01:26:24.680Z,0.23
2019-03-24T01:28:54.732Z,0.43
2019-03-24T01:31:24.624Z,0.70
2019-03-24T01:33:54.484Z,0.40
2019-03-24T01:36:24.476Z,0.70
2019-03-24T01:38:54.302Z,0.83
2019-03-24T01:41:24.270Z,0.30
2019-03-24T01:43:54.157Z,0.50
2019-03-24T01:46:24.082Z,0.50
2019-03-24T01:48:53.941Z,0.63
2019-03-24T01:51:23.910Z,0.70
2019-03-24T01:53:53.867Z,0.67
2019-03-24T01:56:26.620Z,0.30
2019-03-24T01:58:56.570Z,0.87
2019-03-24T02:01:26.439Z,0.70
2019-03-24T02:03:56.568Z,0.50
2019-03-24T02:06:26.484Z,0.40
2019-03-24T02:08:56.491Z,0.53
2019-03-24T02:11:26.443Z,0.43
2019-03-24T02:13:56.307Z,0.30
2019-03-24T02:16:26.165Z,0.43
2019-03-24T02:18:56.228Z,0.40
2019-03-24T02:21:26.341Z,0.73
2019-03-24T02:23:56.336Z,0.40
2019-03-24T02:26:26.240Z,0.30
2019-03-24T02:28:56.157Z,0.50
2019-03-24T02:31:26.130Z,0.70
2019-03-24T02:33:56.019Z,0.73
2019-03-24T02:36:25.901Z,0.50
2019-03-24T02:38:55.838Z,0.30
2019-03-24T02:41:25.760Z,0.83
2019-03-24T02:43:55.685Z,0.67
2019-03-24T02:46:25.618Z,0.33
2019-03-24T02:48:55.490Z,0.63
2019-03-24T02:51:25.398Z,0.50
2019-03-24T02:53:55.301Z,0.30
2019-03-24T02:56:25.205Z,0.43
2019-03-24T02:58:55.155Z,0.40
2019-03-24T03:01:25.060Z,0.30
2019-03-24T03:03:54.957Z,0.30
2019-03-24T03:06:24.855Z,0.40
2019-03-24T03:08:54.745Z,0.53
2019-03-24T03:11:24.733Z,0.30
2019-03-24T03:13:54.632Z,0.63
2019-03-24T03:16:37.547Z,0.33
2019-03-24T03:18:56.185Z,0.50
2019-03-24T03:21:26.175Z,0.40
2019-03-24T03:23:56.050Z,0.80
2019-03-24T03:26:25.977Z,0.33
2019-03-24T03:28:55.934Z,0.50
2019-03-24T03:31:25.834Z,0.50
2019-03-24T03:33:55.797Z,0.80
2019-03-24T03:36:25.927Z,0.90
2019-03-24T03:38:55.779Z,0.47
2019-03-24T03:41:25.648Z,0.60
2019-03-24T03:43:55.601Z,0.50
2019-03-24T03:46:25.478Z,0.70
2019-03-24T03:48:55.360Z,0.60
2019-03-24T03:51:25.238Z,0.47
2019-03-24T03:53:55.106Z,0.70
2019-03-24T03:56:24.982Z,0.60
2019-03-24T03:58:54.942Z,0.60
2019-03-24T04:01:24.793Z,0.70
2019-03-24T04:03:54.676Z,0.33
2019-03-24T04:06:24.682Z,0.53
2019-03-24T04:08:54.562Z,0.40
2019-03-24T04:11:24.472Z,0.60
2019-03-24T04:13:54.375Z,0.70
2019-03-24T04:16:24.261Z,0.77
2019-03-24T04:18:54.139Z,0.40
2019-03-24T04:21:24.068Z,0.60
2019-03-24T04:23:54.041Z,0.50
2019-03-24T04:26:23.933Z,0.70
2019-03-24T04:28:53.871Z,0.40
2019-03-24T04:31:23.866Z,0.50
2019-03-24T04:33:53.846Z,0.53
2019-03-24T04:36:23.915Z,0.40
2019-03-24T04:38:53.816Z,0.20
2019-03-24T04:41:23.748Z,0.70
2019-03-24T04:43:53.721Z,0.30
2019-03-24T04:46:23.702Z,0.60
2019-03-24T04:48:53.586Z,0.23
2019-03-24T04:51:23.504Z,0.40
2019-03-24T04:53:53.400Z,0.87
2019-03-24T04:56:23.273Z,0.40
2019-03-24T04:58:53.194Z,0.70
2019-03-24T05:01:23.187Z,0.50
2019-03-24T05:03:53.092Z,0.63
2019-03-24T05:06:23.688Z,0.67
2019-03-24T05:08:54.391Z,0.33
2019-03-24T05:11:24.260Z,0.70
2019-03-24T05:13:54.166Z,0.77
2019-03-24T05:16:24.062Z,0.60
2019-03-24T05:18:53.984Z,0.60
2019-03-24T05:21:23.901Z,0.50
2019-03-24T05:23:53.794Z,0.50
2019-03-24T05:26:23.845Z,0.50
2019-03-24T05:28:53.769Z,0.90
2019-03-24T05:31:23.659Z,1.93
2019-03-24T05:33:53.629Z,3.47
2019-03-24T05:36:23.540Z,2.60
2019-03-24T05:38:53.378Z,2.80
2019-03-24T05:41:23.309Z,6.50
2019-03-24T05:43:53.274Z,1.73
2019-03-24T05:46:23.157Z,1.20
2019-03-24T05:48:53.090Z,1.30
2019-03-24T05:51:23.005Z,1.00
2019-03-24T05:53:53.007Z,1.10
2019-03-24T05:56:22.947Z,1.10
2019-03-24T05:58:52.879Z,1.43
2019-03-24T06:01:22.780Z,1.30
2019-03-24T06:03:52.667Z,0.93
2019-03-24T06:06:22.556Z,1.27
2019-03-24T06:08:52.465Z,1.23
2019-03-24T06:11:22.357Z,1.40
2019-03-24T06:13:52.286Z,1.27
2019-03-24T06:16:22.162Z,1.13
2019-03-24T06:18:52.091Z,1.03
2019-03-24T06:21:22.084Z,1.30
2019-03-24T06:23:51.977Z,0.93
2019-03-24T06:26:21.946Z,1.20
2019-03-24T06:28:51.927Z,0.90
2019-03-24T06:31:21.880Z,1.03
2019-03-24T06:33:51.805Z,0.80
2019-03-24T06:36:21.744Z,1.20
2019-03-24T06:38:51.605Z,1.23
2019-03-24T06:41:21.502Z,1.50
2019-03-24T06:43:51.527Z,1.13
2019-03-24T06:46:21.521Z,1.10
2019-03-24T06:48:51.483Z,1.20
2019-03-24T06:51:21.409Z,1.20
2019-03-24T06:53:51.405Z,1.00
2019-03-24T06:56:21.294Z,1.07
2019-03-24T06:58:51.294Z,1.27
2019-03-24T07:01:21.211Z,1.03
2019-03-24T07:03:51.214Z,0.97
2019-03-24T07:06:21.308Z,1.37
2019-03-24T07:08:51.301Z,1.13
2019-03-24T07:11:21.269Z,1.30
2019-03-24T07:13:51.222Z,1.30
2019-03-24T07:16:21.129Z,1.20
2019-03-24T07:18:53.344Z,0.97
2019-03-24T07:21:23.257Z,1.10
2019-03-24T07:23:53.243Z,1.57
2019-03-24T07:26:23.141Z,1.10
2019-03-24T07:28:53.091Z,1.40
2019-03-24T07:31:23.199Z,1.87
2019-03-24T07:33:53.109Z,1.40
2019-03-24T07:36:23.048Z,1.47
2019-03-24T07:38:52.998Z,1.20
2019-03-24T07:41:22.836Z,1.13
2019-03-24T07:43:52.756Z,1.40
2019-03-24T07:46:22.649Z,1.10
2019-03-24T07:48:52.501Z,1.30
2019-03-24T07:51:22.468Z,1.10
2019-03-24T07:53:52.421Z,1.13
2019-03-24T07:56:22.354Z,1.00
2019-03-24T07:58:52.237Z,1.20
2019-03-24T08:01:22.134Z,1.10
2019-03-24T08:03:52.034Z,1.33
2019-03-24T08:06:21.955Z,1.30
2019-03-24T08:08:51.879Z,1.00
2019-03-24T08:11:21.868Z,0.90
2019-03-24T08:13:54.012Z,1.20
2019-03-24T08:16:23.452Z,1.00
2019-03-24T08:18:53.375Z,1.23
2019-03-24T08:21:23.314Z,0.80
2019-03-24T08:23:53.322Z,1.10
2019-03-24T08:26:23.242Z,0.90
2019-03-24T08:28:53.161Z,1.00
2019-03-24T08:31:23.214Z,0.90
2019-03-24T08:33:53.184Z,0.90
2019-03-24T08:36:23.136Z,1.17
2019-03-24T08:38:53.042Z,1.03
2019-03-24T08:41:22.977Z,0.70
2019-03-24T08:43:52.960Z,0.90
2019-03-24T08:46:22.865Z,0.67
2019-03-24T08:48:52.790Z,0.90
2019-03-24T08:51:22.654Z,0.80
2019-03-24T08:53:52.604Z,0.80
2019-03-24T08:56:22.560Z,0.60
2019-03-24T08:58:52.474Z,0.73
2019-03-24T09:01:22.377Z,1.03
2019-03-24T09:03:52.363Z,0.70
2019-03-24T09:06:22.260Z,0.77
2019-03-24T09:08:52.199Z,0.43
2019-03-24T09:11:30.853Z,1.00
2019-03-24T09:13:53.797Z,0.70
2019-03-24T09:16:23.713Z,0.60
2019-03-24T09:18:54.661Z,0.40
2019-03-24T09:21:24.678Z,0.60
2019-03-24T09:23:54.636Z,0.60
2019-03-24T09:26:24.650Z,0.50
2019-03-24T09:28:54.606Z,0.63
2019-03-24T09:31:24.583Z,0.40
2019-03-24T09:33:54.500Z,0.73
2019-03-24T09:36:24.396Z,0.60
2019-03-24T09:38:54.303Z,0.50
2019-03-24T09:41:24.268Z,0.30
2019-03-24T09:43:54.189Z,0.67
2019-03-24T09:46:24.120Z,0.50
2019-03-24T09:49:02.775Z,0.60
2019-03-24T09:51:25.859Z,0.87
2019-03-24T09:53:55.760Z,0.47
2019-03-24T09:56:25.714Z,0.40
2019-03-24T09:58:55.696Z,0.60
2019-03-24T10:01:25.604Z,0.40
2019-03-24T10:03:55.534Z,0.33
2019-03-24T10:06:25.465Z,0.50
2019-03-24T10:08:55.522Z,0.60
2019-03-24T10:11:25.499Z,0.23
2019-03-24T10:13:55.371Z,0.30
2019-03-24T10:16:25.418Z,0.40
2019-03-24T10:18:55.292Z,0.80
2019-03-24T10:21:25.273Z,0.20
2019-03-24T10:23:55.261Z,0.50
2019-03-24T10:26:25.158Z,0.67
2019-03-24T10:28:55.136Z,0.40
2019-03-24T10:31:25.144Z,0.50
2019-03-24T10:33:55.137Z,0.50
2019-03-24T10:36:25.019Z,0.40
2019-03-24T10:38:54.976Z,0.53
2019-03-24T10:41:24.841Z,0.80
2019-03-24T10:43:54.733Z,0.40
2019-03-24T10:46:24.615Z,0.40
2019-03-24T10:48:54.492Z,0.50
2019-03-24T10:51:24.425Z,0.40
2019-03-24T10:53:54.391Z,0.30
2019-03-24T10:56:24.303Z,0.53
2019-03-24T10:58:54.228Z,0.57
2019-03-24T11:01:24.164Z,0.57
2019-03-24T11:03:54.070Z,0.57
2019-03-24T11:06:24.028Z,0.40
2019-03-24T11:08:53.996Z,0.60
2019-03-24T11:11:23.892Z,0.30
2019-03-24T11:13:53.817Z,0.30
2019-03-24T11:16:23.735Z,0.40
2019-03-24T11:18:53.629Z,0.60
2019-03-24T11:21:23.534Z,0.60
2019-03-24T11:23:53.423Z,0.40
2019-03-24T11:26:23.374Z,0.53
2019-03-24T11:28:53.271Z,0.50
2019-03-24T11:31:23.251Z,0.33
2019-03-24T11:33:53.266Z,0.43
2019-03-24T11:36:23.174Z,0.40
2019-03-24T11:38:53.069Z,0.50
2019-03-24T11:41:23.001Z,0.30
2019-03-24T11:43:52.970Z,0.40
2019-03-24T11:46:22.906Z,0.40
2019-03-24T11:48:52.856Z,0.37
2019-03-24T11:51:22.768Z,0.50
2019-03-24T11:53:52.725Z,0.40
2019-03-24T11:56:22.704Z,0.40
2019-03-24T11:58:52.697Z,0.40
2019-03-24T12:01:22.659Z,0.40
2019-03-24T12:03:52.653Z,0.40
2019-03-24T12:06:22.654Z,0.37
2019-03-24T12:08:52.622Z,0.50
2019-03-24T12:11:25.255Z,0.40
2019-03-24T12:13:55.187Z,0.37
2019-03-24T12:16:25.210Z,0.60
2019-03-24T12:18:55.214Z,0.60
2019-03-24T12:21:25.106Z,0.30
2019-03-24T12:23:55.124Z,0.43
2019-03-24T12:26:25.110Z,0.80
2019-03-24T12:28:55.005Z,0.40
2019-03-24T12:31:25.003Z,0.40
2019-03-24T12:33:55.213Z,0.43
2019-03-24T12:36:25.132Z,0.30
2019-03-24T12:38:55.078Z,0.27
2019-03-24T12:41:25.069Z,0.43
2019-03-24T12:43:54.966Z,0.57
2019-03-24T12:46:24.938Z,0.50
2019-03-24T12:48:54.927Z,0.30
2019-03-24T12:51:24.860Z,0.30
2019-03-24T12:53:54.795Z,0.50
2019-03-24T12:56:24.774Z,0.40
2019-03-24T12:58:54.668Z,0.40
2019-03-24T13:01:24.596Z,0.30
2019-03-24T13:03:54.584Z,0.60
2019-03-24T13:06:24.559Z,0.53
2019-03-24T13:08:54.504Z,0.47
2019-03-24T13:11:24.547Z,0.40
2019-03-24T13:13:54.459Z,0.40
2019-03-24T13:16:24.413Z,0.43
2019-03-24T13:18:54.321Z,0.40
2019-03-24T13:21:24.526Z,0.70
2019-03-24T13:23:54.578Z,0.70
2019-03-24T13:26:24.549Z,0.57
2019-03-24T13:28:54.486Z,0.60
2019-03-24T13:31:24.439Z,0.50
2019-03-24T13:33:54.458Z,0.47
2019-03-24T13:36:24.373Z,0.53
2019-03-24T13:38:54.335Z,0.60
2019-03-24T13:41:24.244Z,0.60
2019-03-24T13:43:54.183Z,0.50
2019-03-24T13:46:24.355Z,0.67
2019-03-24T13:48:54.469Z,0.60
2019-03-24T13:51:24.463Z,0.60
2019-03-24T13:53:54.412Z,0.70
2019-03-24T13:56:24.376Z,0.70
2019-03-24T13:58:54.304Z,0.40
2019-03-24T14:01:24.842Z,0.50
2019-03-24T14:03:55.179Z,0.80
2019-03-24T14:06:25.586Z,0.47
2019-03-24T14:08:55.872Z,0.70
2019-03-24T14:11:25.928Z,0.67
2019-03-24T14:13:55.852Z,0.80
2019-03-24T14:16:25.795Z,0.63
2019-03-24T14:18:55.723Z,0.60
2019-03-24T14:21:25.739Z,0.70
2019-03-24T14:23:55.794Z,0.70
2019-03-24T14:26:25.695Z,0.63
2019-03-24T14:28:55.605Z,0.70
2019-03-24T14:31:25.694Z,0.60
2019-03-24T14:33:55.698Z,0.90
2019-03-24T14:36:25.992Z,0.70
2019-03-24T14:38:56.507Z,0.80
2019-03-24T14:41:30.800Z,0.67
2019-03-24T14:44:00.888Z,0.70
2019-03-24T14:46:30.819Z,0.40
2019-03-24T14:49:02.734Z,0.70
2019-03-24T14:51:32.717Z,0.60
2019-03-24T14:54:02.759Z,0.90
2019-03-24T14:56:34.090Z,0.40
2019-03-24T14:59:04.495Z,0.60
2019-03-24T15:01:34.407Z,0.80
2019-03-24T15:04:04.341Z,0.83
2019-03-24T15:06:37.003Z,0.63
2019-03-24T15:09:08.285Z,0.60
2019-03-24T15:11:38.265Z,0.67
2019-03-24T15:14:08.269Z,0.43
2019-03-24T15:16:38.648Z,0.73
2019-03-24T15:19:08.693Z,0.20
2019-03-24T15:21:38.799Z,0.60
2019-03-24T15:24:09.186Z,0.60
2019-03-24T15:26:41.133Z,0.60
2019-03-24T15:29:11.130Z,0.60
2019-03-24T15:31:41.737Z,0.60
2019-03-24T15:34:11.666Z,0.70
2019-03-24T15:36:41.725Z,0.50
2019-03-24T15:39:12.094Z,0.50
2019-03-24T15:41:42.061Z,0.57
2019-03-24T15:44:11.998Z,0.60
2019-03-24T15:46:42.157Z,0.50
2019-03-24T15:49:12.447Z,0.80
2019-03-24T15:51:43.036Z,0.57
2019-03-24T15:54:13.470Z,0.40
2019-03-24T15:56:43.511Z,0.40
2019-03-24T15:59:13.487Z,0.47
2019-03-24T16:01:43.486Z,0.43
2019-03-24T16:04:13.392Z,0.43
2019-03-24T16:06:43.409Z,0.30
2019-03-24T16:09:13.377Z,0.50
2019-03-24T16:11:43.702Z,0.30
2019-03-24T16:14:13.732Z,0.30
2019-03-24T16:16:43.676Z,0.50
2019-03-24T16:19:13.646Z,0.30
2019-03-24T16:21:43.593Z,0.80
2019-03-24T16:24:13.631Z,0.53
2019-03-24T16:26:43.624Z,0.43
2019-03-24T16:29:13.705Z,0.20
2019-03-24T16:31:45.517Z,0.50
2019-03-24T16:34:15.961Z,0.50
2019-03-24T16:36:49.030Z,0.30
2019-03-24T16:39:18.879Z,0.67
2019-03-24T16:41:48.850Z,0.20
2019-03-24T16:44:18.823Z,0.53
2019-03-24T16:46:48.802Z,0.27
2019-03-24T16:49:18.788Z,0.30
2019-03-24T16:51:48.775Z,0.30
2019-03-24T16:54:18.817Z,0.47
2019-03-24T16:56:48.731Z,0.20
2019-03-24T16:59:18.733Z,0.40
2019-03-24T17:01:48.633Z,0.40
2019-03-24T17:04:18.530Z,0.40
2019-03-24T17:06:48.453Z,0.30
2019-03-24T17:09:20.691Z,0.30
2019-03-24T17:11:50.691Z,0.40
2019-03-24T17:14:20.632Z,0.40
2019-03-24T17:16:50.549Z,0.30
2019-03-24T17:19:20.534Z,0.70
2019-03-24T17:21:50.526Z,0.43
2019-03-24T17:24:20.388Z,0.60
2019-03-24T17:26:50.422Z,0.60
2019-03-24T17:29:20.393Z,0.30
2019-03-24T17:31:50.636Z,0.27
2019-03-24T17:34:21.195Z,0.40
2019-03-24T17:36:51.434Z,0.20
2019-03-24T17:39:22.126Z,0.17
2019-03-24T17:41:52.609Z,0.10
2019-03-24T17:44:22.647Z,0.20
2019-03-24T17:46:52.653Z,0.20
2019-03-24T17:49:23.331Z,0.60
2019-03-24T17:52:01.057Z,0.30
2019-03-24T17:54:28.394Z,0.23
2019-03-24T17:56:58.699Z,0.30
2019-03-24T17:59:28.983Z,0.20
2019-03-24T18:01:59.013Z,0.20
2019-03-24T18:04:28.969Z,0.33
2019-03-24T18:06:58.868Z,0.30
2019-03-24T18:09:28.805Z,0.20
2019-03-24T18:11:59.026Z,0.20
2019-03-24T18:14:28.958Z,0.33
2019-03-24T18:16:59.269Z,0.30
2019-03-24T18:19:29.165Z,0.20
2019-03-24T18:21:59.126Z,0.20
2019-03-24T18:24:29.099Z,0.20
2019-03-24T18:26:59.793Z,0.20
2019-03-24T18:29:30.560Z,0.30
2019-03-24T18:32:00.794Z,0.10
2019-03-24T18:34:31.228Z,0.30
2019-03-24T18:37:01.151Z,0.30
2019-03-24T18:39:31.142Z,0.20
2019-03-24T18:42:01.099Z,0.30
2019-03-24T18:44:31.040Z,0.30
2019-03-24T18:47:01.043Z,0.20
2019-03-24T18:49:30.893Z,0.20
2019-03-24T18:52:00.796Z,0.30
2019-03-24T18:54:30.804Z,0.20
2019-03-24T18:57:00.686Z,0.30
2019-03-24T18:59:30.580Z,0.20
2019-03-24T19:02:00.643Z,0.30
2019-03-24T19:04:30.558Z,0.30
2019-03-24T19:07:00.475Z,0.40
2019-03-24T19:09:30.394Z,0.30
2019-03-24T19:12:00.377Z,0.30
2019-03-24T19:14:31.982Z,0.20
2019-03-24T19:17:02.002Z,0.30
2019-03-24T19:19:32.136Z,0.27
2019-03-24T19:22:02.082Z,0.70
2019-03-24T19:24:32.016Z,0.40
2019-03-24T19:27:01.894Z,0.30
2019-03-24T19:29:31.807Z,0.50
2019-03-24T19:32:01.761Z,0.30
2019-03-24T19:34:32.022Z,0.30
2019-03-24T19:37:02.136Z,0.20
2019-03-24T19:39:32.201Z,0.43
2019-03-24T19:42:02.257Z,0.53
2019-03-24T19:44:32.235Z,0.43
2019-03-24T19:47:02.975Z,0.30
2019-03-24T19:49:33.564Z,0.37
2019-03-24T19:52:03.496Z,0.30
2019-03-24T19:54:33.430Z,0.60
2019-03-24T19:57:03.431Z,0.50
2019-03-24T19:59:33.377Z,0.50
2019-03-24T20:02:03.483Z,0.60
2019-03-24T20:04:34.596Z,0.23
2019-03-24T20:07:04.626Z,0.90
2019-03-24T20:09:34.770Z,0.20
2019-03-24T20:12:05.553Z,0.47
2019-03-24T20:14:35.906Z,0.63
2019-03-24T20:17:06.300Z,0.63
2019-03-24T20:19:39.179Z,0.60
2019-03-24T20:22:09.098Z,0.70
2019-03-24T20:24:39.164Z,0.80
2019-03-24T20:27:09.621Z,0.40
2019-03-24T20:29:39.691Z,0.47
2019-03-24T20:32:09.650Z,0.77
2019-03-24T20:34:39.599Z,0.47
2019-03-24T20:37:09.907Z,0.40
2019-03-24T20:39:39.869Z,0.93
2019-03-24T20:42:09.850Z,0.60
2019-03-24T20:44:39.919Z,0.50
2019-03-24T20:47:09.867Z,0.80
2019-03-24T20:49:39.827Z,0.70
2019-03-24T20:52:09.753Z,0.90
2019-03-24T20:54:39.748Z,0.60
2019-03-24T20:57:09.851Z,0.73
2019-03-24T20:59:39.840Z,0.67
2019-03-24T21:02:09.770Z,0.37
2019-03-24T21:04:39.678Z,0.40
2019-03-24T21:07:09.805Z,0.60
2019-03-24T21:09:39.717Z,0.77
2019-03-24T21:12:09.802Z,0.53
2019-03-24T21:14:40.003Z,0.63
2019-03-24T21:17:10.396Z,0.50
2019-03-24T21:19:40.666Z,0.50
2019-03-24T21:22:10.880Z,0.87
2019-03-24T21:24:40.885Z,0.60
2019-03-24T21:27:10.826Z,0.60
2019-03-24T21:29:40.710Z,0.60
2019-03-24T21:32:11.305Z,1.00
2019-03-24T21:34:41.621Z,0.73
2019-03-24T21:37:12.082Z,0.80
2019-03-24T21:39:42.019Z,0.33
2019-03-24T21:42:11.969Z,0.87
2019-03-24T21:44:41.841Z,0.30
2019-03-24T21:47:12.129Z,0.83
2019-03-24T21:49:42.079Z,0.57
2019-03-24T21:52:12.039Z,0.50
2019-03-24T21:54:41.910Z,0.47
2019-03-24T21:57:12.034Z,0.30
2019-03-24T21:59:42.085Z,0.40
2019-03-24T22:02:12.139Z,0.47
2019-03-24T22:04:42.316Z,0.90
2019-03-24T22:07:12.242Z,0.60
2019-03-24T22:09:42.162Z,0.40
2019-03-24T22:12:12.121Z,0.53
2019-03-24T22:14:42.141Z,0.40
2019-03-24T22:17:12.186Z,0.50
2019-03-24T22:19:42.107Z,0.50
2019-03-24T22:22:12.055Z,0.33
2019-03-24T22:24:42.093Z,0.40
2019-03-24T22:27:12.422Z,0.27
2019-03-24T22:29:42.336Z,0.40
2019-03-24T22:32:12.240Z,0.40
2019-03-24T22:34:42.261Z,0.30
2019-03-24T22:37:16.129Z,0.53
2019-03-24T22:39:44.011Z,0.30
2019-03-24T22:42:14.010Z,0.40
2019-03-24T22:44:43.941Z,0.40
2019-03-24T22:47:13.826Z,0.30
2019-03-24T22:49:43.910Z,0.30
2019-03-24T22:52:13.803Z,0.30
2019-03-24T22:54:43.748Z,0.30
2019-03-24T22:57:13.685Z,0.30
2019-03-24T22:59:43.594Z,0.60
2019-03-24T23:02:13.525Z,0.30
2019-03-24T23:04:43.501Z,0.40
2019-03-24T23:07:13.393Z,0.40
2019-03-24T23:09:43.365Z,0.40
2019-03-24T23:12:13.287Z,0.60
2019-03-24T23:14:43.227Z,0.30
2019-03-24T23:17:13.154Z,0.40
2019-03-24T23:19:43.089Z,0.40
2019-03-24T23:22:13.554Z,0.70
2019-03-24T23:24:43.460Z,0.43
2019-03-24T23:27:13.403Z,0.43
2019-03-24T23:29:43.351Z,0.30
2019-03-24T23:32:13.281Z,0.50
2019-03-24T23:34:43.209Z,0.50
2019-03-24T23:37:13.147Z,0.73
2019-03-24T23:39:43.057Z,0.63
2019-03-24T23:42:12.976Z,0.57
2019-03-24T23:44:42.937Z,0.63
2019-03-24T23:47:12.997Z,0.57
2019-03-24T23:49:42.937Z,0.60
2019-03-24T23:52:12.870Z,0.47
2019-03-24T23:54:42.795Z,0.63
2019-03-24T23:57:12.806Z,0.70
2019-03-24T23:59:42.781Z,0.30
